createdAt,value
2017-12-12T00:01:45.301Z,72.90
2017-12-12T00:04:12.777Z,72.90
2017-12-12T00:06:40.245Z,73.00
2017-12-12T00:09:07.702Z,73.00
2017-12-12T00:11:35.179Z,73.00
2017-12-12T00:14:03.393Z,73.00
2017-12-12T00:16:30.897Z,73.00
2017-12-12T00:18:58.364Z,73.10
2017-12-12T00:21:26.581Z,72.90
2017-12-12T00:23:54.028Z,72.90
2017-12-12T00:26:21.502Z,73.00
2017-12-12T00:28:48.951Z,73.00
2017-12-12T00:31:16.433Z,73.00
2017-12-12T00:33:43.889Z,73.10
2017-12-12T00:36:11.337Z,73.10
2017-12-12T00:38:38.804Z,73.00
2017-12-12T00:41:06.259Z,73.00
2017-12-12T00:43:33.733Z,73.00
2017-12-12T00:46:01.205Z,73.00
2017-12-12T00:48:28.673Z,72.80
2017-12-12T00:50:56.890Z,72.80
2017-12-12T00:53:24.369Z,72.70
2017-12-12T00:55:52.595Z,72.70
2017-12-12T00:58:20.057Z,72.70
2017-12-12T01:00:47.514Z,72.60
2017-12-12T01:03:15.741Z,72.80
2017-12-12T01:05:43.189Z,72.80
2017-12-12T01:08:10.674Z,72.80
2017-12-12T01:10:38.118Z,72.80
2017-12-12T01:13:05.586Z,72.40
2017-12-12T01:15:33.599Z,72.40
2017-12-12T01:18:01.074Z,72.50
2017-12-12T01:20:28.530Z,72.60
2017-12-12T01:22:55.998Z,72.60
2017-12-12T01:25:23.463Z,72.70
2017-12-12T01:27:50.929Z,72.60
2017-12-12T01:30:18.381Z,72.60
2017-12-12T01:32:45.828Z,72.60
2017-12-12T01:35:13.304Z,72.60
2017-12-12T01:37:40.771Z,72.70
2017-12-12T01:40:08.262Z,72.60
2017-12-12T01:42:35.709Z,72.60
2017-12-12T01:45:04.073Z,72.60
2017-12-12T01:47:31.542Z,72.60
2017-12-12T01:49:59.014Z,72.60
2017-12-12T01:52:27.243Z,72.80
2017-12-12T01:54:54.700Z,72.80
2017-12-12T01:57:22.161Z,72.80
2017-12-12T01:59:49.634Z,72.80
2017-12-12T02:02:17.104Z,72.90
2017-12-12T02:04:44.573Z,72.90
2017-12-12T02:07:12.022Z,72.80
2017-12-12T02:09:39.480Z,72.80
2017-12-12T02:12:06.958Z,72.90
2017-12-12T02:14:34.647Z,72.90
2017-12-12T02:17:02.118Z,72.80
2017-12-12T02:19:29.570Z,72.80
2017-12-12T02:21:57.031Z,73.00
2017-12-12T02:24:24.518Z,73.00
2017-12-12T02:26:52.730Z,73.00
2017-12-12T02:29:20.807Z,72.90
2017-12-12T02:31:48.276Z,72.80
2017-12-12T02:34:15.724Z,72.80
2017-12-12T02:36:43.274Z,72.80
2017-12-12T02:39:11.514Z,73.10
2017-12-12T02:41:39.717Z,73.20
2017-12-12T02:44:07.209Z,73.20
2017-12-12T02:46:35.242Z,73.20
2017-12-12T02:49:02.686Z,73.10
2017-12-12T02:51:30.150Z,73.00
2017-12-12T02:53:57.598Z,72.80
2017-12-12T02:56:25.110Z,72.70
2017-12-12T02:58:52.525Z,72.90
2017-12-12T03:01:19.998Z,73.00
2017-12-12T03:03:47.444Z,72.90
2017-12-12T03:06:14.889Z,72.90
2017-12-12T03:08:42.418Z,73.00
2017-12-12T03:11:09.879Z,73.70
2017-12-12T03:13:37.350Z,73.00
2017-12-12T03:16:04.837Z,73.10
2017-12-12T03:18:32.285Z,73.10
2017-12-12T03:20:59.757Z,73.10
2017-12-12T03:23:27.251Z,73.00
2017-12-12T03:25:54.724Z,73.10
2017-12-12T03:28:22.160Z,73.10
2017-12-12T03:30:49.646Z,72.80
2017-12-12T03:33:17.122Z,72.80
2017-12-12T03:35:44.569Z,72.70
2017-12-12T03:38:12.017Z,72.70
2017-12-12T03:40:39.493Z,72.60
2017-12-12T03:43:06.953Z,72.70
2017-12-12T03:45:34.449Z,72.70
2017-12-12T03:48:01.892Z,72.70
2017-12-12T03:50:29.333Z,72.80
2017-12-12T03:52:56.808Z,72.80
2017-12-12T03:55:24.260Z,73.70
2017-12-12T03:57:51.734Z,72.90
2017-12-12T04:00:19.180Z,73.00
2017-12-12T04:02:46.700Z,73.80
2017-12-12T04:05:14.149Z,73.00
2017-12-12T04:07:41.649Z,72.90
2017-12-12T04:10:09.106Z,73.00
2017-12-12T04:12:37.012Z,73.00
2017-12-12T04:17:39.826Z,73.10
2017-12-12T04:20:07.297Z,73.10
2017-12-12T04:22:34.746Z,73.30
2017-12-12T04:25:02.230Z,73.20
2017-12-12T04:27:29.684Z,73.30
2017-12-12T04:29:57.161Z,73.30
2017-12-12T04:32:24.600Z,73.30
2017-12-12T04:34:52.062Z,73.20
2017-12-12T04:37:19.533Z,73.20
2017-12-12T04:39:47.001Z,73.30
2017-12-12T04:42:14.486Z,73.30
2017-12-12T04:44:41.930Z,73.30
2017-12-12T04:47:09.382Z,73.20
2017-12-12T04:49:37.769Z,73.30
2017-12-12T04:52:05.221Z,73.30
2017-12-12T04:54:32.698Z,73.30
2017-12-12T04:57:00.929Z,73.40
2017-12-12T04:59:28.402Z,73.40
2017-12-12T05:01:55.857Z,73.30
2017-12-12T05:04:23.326Z,73.20
2017-12-12T05:06:51.546Z,73.00
2017-12-12T05:09:19.021Z,72.90
2017-12-12T05:11:46.482Z,72.90
2017-12-12T05:14:13.953Z,72.70
2017-12-12T05:16:41.486Z,72.70
2017-12-12T05:19:08.933Z,72.70
2017-12-12T05:21:36.403Z,72.70
2017-12-12T05:24:03.874Z,72.60
2017-12-12T05:26:31.321Z,72.60
2017-12-12T05:28:58.788Z,72.50
2017-12-12T05:31:26.250Z,72.30
2017-12-12T05:33:53.733Z,72.20
2017-12-12T05:36:21.212Z,72.10
2017-12-12T05:38:48.657Z,71.90
2017-12-12T05:41:16.128Z,72.00
2017-12-12T05:43:43.574Z,72.10
2017-12-12T05:46:11.065Z,72.20
2017-12-12T05:48:38.905Z,72.30
2017-12-12T05:51:06.355Z,72.30
2017-12-12T05:53:33.825Z,72.40
2017-12-12T05:56:01.293Z,72.60
2017-12-12T05:58:28.753Z,72.60
2017-12-12T06:00:56.208Z,72.80
2017-12-12T06:03:23.677Z,72.90
2017-12-12T06:05:51.142Z,73.00
2017-12-12T06:08:18.609Z,73.00
2017-12-12T06:10:46.053Z,73.10
2017-12-12T06:13:13.531Z,73.10
2017-12-12T06:15:41.081Z,73.20
2017-12-12T06:18:09.445Z,73.30
2017-12-12T06:20:36.901Z,73.30
2017-12-12T06:23:05.134Z,73.40
2017-12-12T06:25:32.628Z,73.40
2017-12-12T06:28:00.105Z,73.50
2017-12-12T06:30:27.578Z,73.40
2017-12-12T06:32:55.058Z,73.50
2017-12-12T06:35:22.542Z,73.50
2017-12-12T06:37:50.019Z,73.50
2017-12-12T06:40:17.501Z,73.50
2017-12-12T06:42:44.958Z,73.50
2017-12-12T06:45:13.429Z,73.60
2017-12-12T06:47:41.023Z,73.60
2017-12-12T06:50:09.759Z,73.60
2017-12-12T06:52:37.552Z,73.70
2017-12-12T06:55:05.149Z,73.80
2017-12-12T06:57:32.851Z,73.60
2017-12-12T07:00:01.303Z,73.50
2017-12-12T07:02:28.958Z,73.40
2017-12-12T07:04:56.514Z,73.50
2017-12-12T07:07:24.126Z,73.60
2017-12-12T07:09:51.748Z,73.50
2017-12-12T07:12:19.492Z,73.50
2017-12-12T07:14:47.187Z,73.40
2017-12-12T07:17:14.805Z,73.30
2017-12-12T07:19:42.538Z,73.10
2017-12-12T07:22:10.824Z,73.10
2017-12-12T07:24:39.138Z,73.30
2017-12-12T07:27:06.665Z,73.20
2017-12-12T07:29:34.496Z,73.10
2017-12-12T07:32:02.009Z,73.00
2017-12-12T07:34:29.548Z,73.20
2017-12-12T07:36:58.151Z,73.10
2017-12-12T07:39:25.793Z,73.00
2017-12-12T07:41:53.499Z,73.10
2017-12-12T07:44:21.364Z,73.90
2017-12-12T07:46:49.173Z,73.10
2017-12-12T07:49:16.681Z,73.00
2017-12-12T07:51:44.953Z,72.90
2017-12-12T07:54:12.652Z,72.80
2017-12-12T07:56:40.363Z,72.80
2017-12-12T07:59:08.696Z,72.80
2017-12-12T08:01:36.241Z,72.70
2017-12-12T08:04:03.918Z,72.60
2017-12-12T08:06:31.640Z,72.60
2017-12-12T08:08:59.279Z,72.50
2017-12-12T08:11:26.769Z,72.60
2017-12-12T08:13:54.354Z,72.60
2017-12-12T08:16:22.443Z,72.60
2017-12-12T08:18:50.039Z,72.50
2017-12-12T08:21:17.557Z,72.60
2017-12-12T08:23:45.255Z,72.70
2017-12-12T08:26:13.536Z,72.60
2017-12-12T08:28:43.293Z,73.30
2017-12-12T08:31:10.916Z,72.80
2017-12-12T08:33:39.910Z,72.60
2017-12-12T08:36:07.488Z,72.60
2017-12-12T08:38:35.092Z,72.50
2017-12-12T08:41:02.915Z,72.40
2017-12-12T08:43:30.499Z,72.50
2017-12-12T08:45:58.846Z,72.70
2017-12-12T08:48:26.441Z,72.60
2017-12-12T08:50:53.970Z,72.40
2017-12-12T08:53:22.457Z,72.50
2017-12-12T08:55:50.000Z,72.60
2017-12-12T08:58:18.342Z,72.80
2017-12-12T09:00:47.494Z,72.60
2017-12-12T09:03:15.187Z,72.60
2017-12-12T09:05:43.392Z,72.30
2017-12-12T09:08:11.108Z,72.00
2017-12-12T09:10:38.710Z,71.90
2017-12-12T09:13:06.316Z,72.00
2017-12-12T09:15:34.006Z,72.10
2017-12-12T09:18:01.628Z,72.10
2017-12-12T09:20:29.318Z,72.00
2017-12-12T09:22:56.950Z,71.90
2017-12-12T09:25:24.491Z,71.90
2017-12-12T09:27:52.024Z,71.90
2017-12-12T09:30:19.834Z,71.70
2017-12-12T09:32:52.192Z,71.80
2017-12-12T09:35:19.950Z,71.80
2017-12-12T09:37:47.656Z,71.80
2017-12-12T09:40:15.305Z,71.30
2017-12-12T09:42:42.923Z,70.90
2017-12-12T09:45:10.491Z,70.90
2017-12-12T09:47:37.981Z,70.90
2017-12-12T09:50:05.532Z,71.80
2017-12-12T09:52:34.517Z,70.60
2017-12-12T09:55:02.175Z,70.50
2017-12-12T09:57:29.913Z,70.70
2017-12-12T09:59:57.559Z,71.00
2017-12-12T10:02:25.294Z,71.00
2017-12-12T10:04:53.740Z,71.10
2017-12-12T10:07:21.582Z,71.30
2017-12-12T10:09:49.243Z,71.30
2017-12-12T10:12:16.802Z,71.10
2017-12-12T10:14:45.636Z,70.50
2017-12-12T10:17:13.404Z,70.50
2017-12-12T10:19:40.955Z,70.40
2017-12-12T10:22:09.093Z,70.60
2017-12-12T10:24:36.865Z,70.80
2017-12-12T10:27:04.417Z,71.00
2017-12-12T10:29:32.110Z,71.00
2017-12-12T10:32:00.507Z,71.10
2017-12-12T10:34:28.559Z,71.00
2017-12-12T10:36:56.160Z,71.10
2017-12-12T10:39:24.534Z,72.10
2017-12-12T10:41:53.057Z,71.10
2017-12-12T10:44:20.741Z,71.10
2017-12-12T10:46:48.411Z,70.80
2017-12-12T10:49:15.984Z,70.90
2017-12-12T10:51:43.540Z,71.10
2017-12-12T10:54:11.272Z,71.00
2017-12-12T10:56:38.962Z,70.80
2017-12-12T10:59:06.597Z,70.80
2017-12-12T11:01:34.236Z,71.00
2017-12-12T11:04:01.991Z,71.10
2017-12-12T11:06:31.172Z,71.10
2017-12-12T11:08:58.938Z,71.10
2017-12-12T11:11:27.346Z,71.00
2017-12-12T11:13:55.158Z,71.00
2017-12-12T11:16:22.763Z,71.10
2017-12-12T11:18:51.080Z,71.30
2017-12-12T11:21:18.771Z,71.20
2017-12-12T11:23:46.357Z,71.10
2017-12-12T11:26:15.908Z,71.00
2017-12-12T11:28:43.421Z,71.00
2017-12-12T11:31:11.995Z,70.80
2017-12-12T11:33:39.479Z,70.70
2017-12-12T11:36:07.058Z,70.40
2017-12-12T11:38:34.548Z,70.10
2017-12-12T11:41:02.049Z,70.10
2017-12-12T11:43:29.690Z,70.10
2017-12-12T11:45:57.247Z,70.10
2017-12-12T11:48:24.946Z,70.20
2017-12-12T11:50:52.628Z,70.20
2017-12-12T11:53:20.382Z,70.20
2017-12-12T11:55:47.995Z,70.00
2017-12-12T11:58:17.350Z,70.30
2017-12-12T12:00:44.873Z,70.30
2017-12-12T12:03:12.590Z,71.00
2017-12-12T12:05:40.173Z,70.30
2017-12-12T12:08:07.849Z,70.20
2017-12-12T12:10:35.615Z,70.20
2017-12-12T12:13:03.251Z,70.20
2017-12-12T12:15:30.843Z,70.20
2017-12-12T12:17:59.157Z,70.00
2017-12-12T12:20:26.676Z,70.00
2017-12-12T12:22:54.324Z,69.80
2017-12-12T12:25:22.842Z,69.80
2017-12-12T12:27:51.172Z,69.40
2017-12-12T12:30:19.380Z,69.40
2017-12-12T12:32:48.046Z,69.20
2017-12-12T12:35:15.788Z,68.70
2017-12-12T12:37:44.524Z,68.30
2017-12-12T12:40:12.146Z,67.90
2017-12-12T12:42:40.039Z,67.90
2017-12-12T12:45:07.709Z,67.90
2017-12-12T12:47:35.334Z,67.90
2017-12-12T12:50:02.934Z,67.90
2017-12-12T12:52:31.380Z,68.10
2017-12-12T12:54:59.668Z,67.50
2017-12-12T12:57:27.216Z,67.50
2017-12-12T12:59:54.785Z,67.40
2017-12-12T13:02:22.523Z,67.50
2017-12-12T13:04:50.008Z,67.50
2017-12-12T13:07:18.652Z,67.30
2017-12-12T13:09:46.546Z,67.50
2017-12-12T13:12:14.101Z,67.50
2017-12-12T13:14:41.772Z,67.80
2017-12-12T13:17:09.558Z,67.90
2017-12-12T13:19:38.011Z,69.00
2017-12-12T13:22:05.602Z,68.10
2017-12-12T13:24:33.092Z,68.10
2017-12-12T13:27:00.555Z,68.10
2017-12-12T13:29:28.013Z,68.40
2017-12-12T13:31:56.297Z,69.00
2017-12-12T13:34:24.233Z,68.90
2017-12-12T13:36:52.003Z,69.10
2017-12-12T13:39:19.648Z,68.90
2017-12-12T13:41:47.210Z,68.20
2017-12-12T13:44:14.718Z,67.80
2017-12-12T13:46:43.033Z,67.60
2017-12-12T13:49:10.559Z,67.60
2017-12-12T13:51:38.865Z,67.40
2017-12-12T13:54:06.590Z,67.00
2017-12-12T13:56:34.801Z,66.90
2017-12-12T13:59:03.072Z,66.80
2017-12-12T14:01:30.649Z,66.60
2017-12-12T14:03:58.341Z,66.60
2017-12-12T14:06:25.962Z,66.40
2017-12-12T14:08:54.453Z,66.80
2017-12-12T14:11:21.978Z,66.80
2017-12-12T14:13:49.761Z,66.60
2017-12-12T14:16:17.412Z,66.50
2017-12-12T14:18:45.059Z,66.30
2017-12-12T14:21:12.601Z,66.30
2017-12-12T14:23:40.434Z,66.10
2017-12-12T14:26:08.756Z,66.10
2017-12-12T14:28:37.109Z,66.10
2017-12-12T14:31:05.264Z,66.10
2017-12-12T14:33:33.994Z,66.30
2017-12-12T14:36:01.593Z,66.50
2017-12-12T14:38:29.159Z,66.00
2017-12-12T14:40:56.710Z,66.80
2017-12-12T14:43:24.450Z,67.00
2017-12-12T14:45:53.060Z,67.20
2017-12-12T14:48:20.738Z,67.20
2017-12-12T14:50:48.309Z,67.40
2017-12-12T14:53:15.910Z,67.50
2017-12-12T14:55:43.544Z,67.80
2017-12-12T14:58:11.364Z,67.80
2017-12-12T15:00:38.947Z,67.90
2017-12-12T15:03:06.758Z,68.30
2017-12-12T15:05:34.442Z,68.30
2017-12-12T15:08:02.101Z,68.60
2017-12-12T15:10:30.312Z,68.70
2017-12-12T15:12:57.853Z,68.90
2017-12-12T15:15:26.122Z,69.10
2017-12-12T15:17:53.789Z,69.20
2017-12-12T15:20:21.525Z,69.30
2017-12-12T15:22:49.191Z,69.40
2017-12-12T15:25:17.785Z,69.50
2017-12-12T15:27:45.345Z,69.50
2017-12-12T15:30:12.998Z,69.60
2017-12-12T15:32:40.653Z,69.60
2017-12-12T15:35:08.219Z,69.70
2017-12-12T15:37:35.714Z,69.80
2017-12-12T15:40:03.438Z,69.80
2017-12-12T15:42:32.084Z,69.90
2017-12-12T15:44:59.695Z,70.00
2017-12-12T15:47:28.095Z,69.90
2017-12-12T15:49:55.666Z,69.90
2017-12-12T15:52:23.233Z,69.90
2017-12-12T15:54:51.978Z,70.20
2017-12-12T15:57:19.586Z,70.10
2017-12-12T15:59:47.204Z,70.20
2017-12-12T16:02:14.832Z,70.00
2017-12-12T16:04:42.550Z,70.10
2017-12-12T16:07:10.141Z,70.20
2017-12-12T16:09:37.745Z,70.30
2017-12-12T16:12:05.203Z,70.30
2017-12-12T16:14:32.995Z,70.20
2017-12-12T16:17:01.313Z,70.20
2017-12-12T16:19:28.894Z,70.20
2017-12-12T16:21:56.539Z,70.20
2017-12-12T16:24:24.081Z,70.20
2017-12-12T16:26:52.778Z,70.40
2017-12-12T16:29:20.331Z,70.30
2017-12-12T16:31:48.113Z,70.30
2017-12-12T16:34:16.308Z,70.00
2017-12-12T16:36:43.958Z,70.20
2017-12-12T16:39:11.798Z,70.20
2017-12-12T16:41:39.435Z,70.20
2017-12-12T16:44:07.904Z,70.40
2017-12-12T16:46:37.157Z,70.40
2017-12-12T16:49:04.782Z,70.30
2017-12-12T16:51:32.507Z,70.20
2017-12-12T16:54:00.195Z,70.20
2017-12-12T16:56:28.716Z,70.30
2017-12-12T16:58:56.338Z,70.30
2017-12-12T17:01:24.625Z,70.20
2017-12-12T17:03:53.212Z,70.20
2017-12-12T17:06:20.772Z,70.20
2017-12-12T17:08:48.646Z,70.40
2017-12-12T17:11:16.516Z,70.40
2017-12-12T17:13:44.777Z,70.40
2017-12-12T17:16:13.700Z,70.70
2017-12-12T17:18:41.385Z,71.10
2017-12-12T17:21:09.879Z,70.20
2017-12-12T17:23:37.537Z,70.50
2017-12-12T17:26:07.216Z,70.60
2017-12-12T17:28:34.787Z,70.70
2017-12-12T17:31:02.328Z,70.70
2017-12-12T17:33:29.988Z,70.50
2017-12-12T17:35:59.590Z,70.40
2017-12-12T17:38:27.202Z,70.50
2017-12-12T17:40:55.489Z,71.30
2017-12-12T17:43:24.130Z,70.50
2017-12-12T17:45:51.632Z,70.30
2017-12-12T17:48:19.246Z,70.30
2017-12-12T17:50:46.769Z,70.30
2017-12-12T17:53:26.165Z,70.20
2017-12-12T17:55:53.936Z,70.50
2017-12-12T17:58:21.633Z,70.30
2017-12-12T18:00:49.116Z,70.30
2017-12-12T18:03:18.761Z,70.30
2017-12-12T18:05:48.777Z,70.10
2017-12-12T18:08:17.649Z,70.10
2017-12-12T18:10:46.374Z,70.20
2017-12-12T18:13:14.291Z,70.30
2017-12-12T18:15:44.102Z,70.40
2017-12-12T18:18:11.820Z,70.40
2017-12-12T18:20:40.855Z,70.60
2017-12-12T18:23:08.849Z,70.50
2017-12-12T18:25:37.089Z,70.50
2017-12-12T18:28:05.429Z,70.50
2017-12-12T18:30:35.200Z,70.70
2017-12-12T18:33:05.803Z,70.70
2017-12-12T18:35:33.502Z,70.70
2017-12-12T18:38:01.700Z,70.80
2017-12-12T18:40:29.345Z,70.60
2017-12-12T18:42:57.147Z,70.50
2017-12-12T18:45:25.043Z,70.50
2017-12-12T18:47:52.661Z,70.50
2017-12-12T18:50:20.978Z,70.60
2017-12-12T18:52:48.721Z,70.60
2017-12-12T18:55:16.440Z,70.60
2017-12-12T18:57:44.132Z,70.60
2017-12-12T19:00:12.130Z,70.60
2017-12-12T19:02:39.946Z,70.60
2017-12-12T19:05:07.585Z,70.60
2017-12-12T19:07:35.233Z,70.70
2017-12-12T19:10:02.741Z,70.60
2017-12-12T19:12:30.442Z,70.60
2017-12-12T19:14:59.026Z,70.60
2017-12-12T19:17:26.583Z,70.60
2017-12-12T19:19:55.042Z,70.60
2017-12-12T19:22:23.429Z,70.50
2017-12-12T19:24:50.947Z,70.40
2017-12-12T19:27:18.774Z,70.50
2017-12-12T19:29:46.434Z,70.40
2017-12-12T19:32:14.104Z,70.50
2017-12-12T19:34:41.923Z,70.60
2017-12-12T19:37:09.896Z,70.70
2017-12-12T19:39:37.385Z,70.70
2017-12-12T19:42:09.205Z,70.70
2017-12-12T19:44:37.148Z,70.70
2017-12-12T19:47:05.746Z,70.60
2017-12-12T19:49:33.565Z,70.50
2017-12-12T19:52:01.092Z,70.30
2017-12-12T19:54:28.610Z,70.60
2017-12-12T19:56:56.418Z,70.60
2017-12-12T19:59:24.353Z,71.40
2017-12-12T20:01:54.771Z,70.80
2017-12-12T20:04:22.529Z,70.60
2017-12-12T20:06:50.859Z,70.60
2017-12-12T20:09:19.123Z,70.60
2017-12-12T20:11:46.606Z,70.50
2017-12-12T20:14:14.093Z,70.50
2017-12-12T20:16:41.714Z,70.50
2017-12-12T20:19:09.258Z,70.50
2017-12-12T20:21:37.474Z,70.50
2017-12-12T20:24:05.148Z,70.40
2017-12-12T20:26:32.637Z,70.50
2017-12-12T20:29:00.121Z,70.60
2017-12-12T20:31:28.284Z,70.60
2017-12-12T20:33:56.756Z,70.50
2017-12-12T20:36:25.147Z,70.50
2017-12-12T20:38:52.681Z,70.50
2017-12-12T20:41:20.128Z,70.50
2017-12-12T20:43:47.846Z,70.50
2017-12-12T20:46:15.389Z,70.50
2017-12-12T20:48:43.689Z,70.70
2017-12-12T20:51:11.179Z,70.70
2017-12-12T20:53:38.624Z,70.80
2017-12-12T20:56:06.110Z,70.80
2017-12-12T20:58:33.590Z,70.70
2017-12-12T21:01:01.092Z,70.80
2017-12-12T21:03:30.040Z,71.00
2017-12-12T21:05:58.494Z,70.90
2017-12-12T21:08:25.956Z,70.80
2017-12-12T21:10:53.442Z,70.80
2017-12-12T21:13:21.742Z,71.30
2017-12-12T21:15:50.042Z,71.30
2017-12-12T21:18:17.545Z,71.30
2017-12-12T21:20:45.042Z,71.10
2017-12-12T21:23:12.570Z,71.00
2017-12-12T21:25:40.140Z,71.00
2017-12-12T21:28:07.683Z,71.20
2017-12-12T21:30:35.339Z,71.40
2017-12-12T21:33:02.876Z,71.60
2017-12-12T21:35:30.494Z,71.70
2017-12-12T21:37:58.775Z,71.90
2017-12-12T21:40:27.097Z,71.80
2017-12-12T21:42:54.574Z,71.80
2017-12-12T21:45:22.174Z,71.80
2017-12-12T21:47:49.810Z,71.90
2017-12-12T21:50:17.370Z,71.90
2017-12-12T21:52:45.214Z,71.80
2017-12-12T21:55:13.102Z,72.60
2017-12-12T21:57:40.767Z,71.90
2017-12-12T22:00:08.541Z,71.90
2017-12-12T22:02:36.392Z,71.90
2017-12-12T22:05:04.186Z,72.10
2017-12-12T22:07:32.082Z,72.20
2017-12-12T22:10:01.583Z,72.30
2017-12-12T22:12:29.332Z,72.30
2017-12-12T22:14:57.859Z,72.50
2017-12-12T22:17:25.649Z,72.30
2017-12-12T22:19:53.266Z,72.40
2017-12-12T22:22:20.897Z,72.60
2017-12-12T22:24:48.529Z,72.50
2017-12-12T22:27:16.179Z,72.50
2017-12-12T22:29:43.857Z,72.50
2017-12-12T22:32:11.529Z,72.60
2017-12-12T22:34:39.220Z,72.60
2017-12-12T22:37:08.080Z,72.60
2017-12-12T22:39:35.719Z,72.60
2017-12-12T22:42:03.467Z,72.70
2017-12-12T22:44:31.149Z,72.80
2017-12-12T22:46:59.376Z,72.70
2017-12-12T22:49:27.116Z,72.70
2017-12-12T22:51:54.701Z,72.80
2017-12-12T22:54:22.357Z,72.90
2017-12-12T22:56:50.163Z,73.00
2017-12-12T22:59:17.890Z,73.10
2017-12-12T23:01:45.500Z,73.10
2017-12-12T23:04:13.263Z,73.00
2017-12-12T23:06:41.073Z,73.10
2017-12-12T23:09:08.983Z,73.10
2017-12-12T23:11:36.732Z,73.10
2017-12-12T23:14:04.415Z,73.20
2017-12-12T23:16:32.055Z,73.10
2017-12-12T23:19:00.442Z,73.10
2017-12-12T23:21:28.223Z,73.10
2017-12-12T23:23:55.923Z,73.20
2017-12-12T23:26:23.549Z,73.20
2017-12-12T23:28:51.312Z,73.30
2017-12-12T23:31:19.056Z,73.30
2017-12-12T23:33:46.743Z,73.20
2017-12-12T23:36:14.431Z,73.30
2017-12-12T23:38:42.180Z,73.30
2017-12-12T23:41:09.855Z,73.30
2017-12-12T23:43:37.557Z,73.10
2017-12-12T23:46:06.102Z,73.30
2017-12-12T23:48:33.865Z,73.10
2017-12-12T23:51:02.430Z,73.10
2017-12-12T23:53:30.175Z,73.10
2017-12-12T23:55:57.841Z,73.20
2017-12-12T23:58:25.588Z,73.10
